Veendam — PHEO — position and weather

sailwx.info

Track history (hours):
 
Tides and Currents Weather Stations Pressure Air Temp Water Temp Dewpoint Dewpoint Depression Visibility Wind Speed Wind Dir Waves Ship Positions

Veendam (Netherlands)

Last reported at 2020-Apr-02 15:00 UTC. Time now 2020-Apr-02 22:22 UTC.
Position N 25°42' W 078°06'.

Type: Ship. MMSI: 246506000.

Wind from 010 at 8 knots

Barometer 1015.0 mb
Air temperature 25.0 ° C
Visibility: greater than 10.8 NM
Dewpoint 17.0 ° C
Water temperature 29.0 ° C

Date/timePositionNaut miles runAvg speedWind from/ knotsBaromVisibWave heightAir tempDewpointWater temp
2020-Apr-02 15:00N 25°42' W 078°06'   010 / 81015.010.8 25.017.029.0
2020-Mar-29 03:30N 25°59' W 079°44'9 8.6
2020-Mar-29 02:31N 26°05' W 079°51'14 5.5
2020-Mar-28 23:58N 26°05' W 080°07'0 0.0
2020-Mar-28 23:28N 26°05' W 080°07'0 0.0
2020-Mar-28 20:58N 26°05' W 080°07'0 0.0
2020-Mar-28 19:28N 26°05' W 080°07'0 0.0
2020-Mar-28 15:28N 26°05' W 080°07'0 0.0
2020-Mar-28 12:28N 26°05' W 080°07'0 0.0
2020-Mar-28 11:58N 26°05' W 080°07'0 0.0
2020-Mar-28 11:28N 26°05' W 080°07'13 4.5
2020-Mar-28 08:30N 25°55' W 079°57'2814.0
2020-Mar-28 06:30N 25°27' W 079°60'35 8.6
2020-Mar-28 02:29N 24°54' W 080°09'35 8.9
2020-Mar-27 22:30N 25°26' W 079°54'8 8.2
2020-Mar-27 21:30N 25°34' W 079°54'34 7.6
2020-Mar-27 17:00N 26°09' W 079°54'611.2
2020-Mar-27 16:30N 26°09' W 079°47'510.7
2020-Mar-27 16:00N 26°09' W 079°42'1111.3
2020-Mar-27 15:00N 26°10' W 079°29'12 2.4
2020-Mar-27 10:01N 26°15' W 079°16'012.6
2020-Mar-27 09:59N 26°15' W 079°17'2311.4
2020-Mar-27 08:00N 26°01' W 079°36'7 3.6
2020-Mar-27 06:00N 25°55' W 079°32'  
Track history (hours):
 
Tides and Currents Weather Stations Pressure Air Temp Water Temp Dewpoint Dewpoint Depression Visibility Wind Speed Wind Dir Waves Ship Positions

Veendam (Netherlands)

Last reported at 2020-Apr-02 15:00 UTC. Time now 2020-Apr-02 22:22 UTC.
Position N 25°42' W 078°06'.

Type: Ship. MMSI: 246506000.

Wind from 010 at 8 knots

Barometer 1015.0 mb
Air temperature 25.0 ° C
Visibility: greater than 10.8 NM
Dewpoint 17.0 ° C
Water temperature 29.0 ° C

Date/timePositionNaut miles runAvg speedWind from/ knotsBaromVisibWave heightAir tempDewpointWater temp
2020-Apr-02 15:00N 25°42' W 078°06'   010 / 81015.010.8 25.017.029.0
2020-Mar-29 03:30N 25°59' W 079°44'9 8.6
2020-Mar-29 02:31N 26°05' W 079°51'14 5.5
2020-Mar-28 23:58N 26°05' W 080°07'0 0.0
2020-Mar-28 23:28N 26°05' W 080°07'0 0.0
2020-Mar-28 20:58N 26°05' W 080°07'0 0.0
2020-Mar-28 19:28N 26°05' W 080°07'0 0.0
2020-Mar-28 15:28N 26°05' W 080°07'0 0.0
2020-Mar-28 12:28N 26°05' W 080°07'0 0.0
2020-Mar-28 11:58N 26°05' W 080°07'0 0.0
2020-Mar-28 11:28N 26°05' W 080°07'13 4.5
2020-Mar-28 08:30N 25°55' W 079°57'2814.0
2020-Mar-28 06:30N 25°27' W 079°60'35 8.6
2020-Mar-28 02:29N 24°54' W 080°09'35 8.9
2020-Mar-27 22:30N 25°26' W 079°54'8 8.2
2020-Mar-27 21:30N 25°34' W 079°54'34 7.6
2020-Mar-27 17:00N 26°09' W 079°54'611.2
2020-Mar-27 16:30N 26°09' W 079°47'510.7
2020-Mar-27 16:00N 26°09' W 079°42'1111.3
2020-Mar-27 15:00N 26°10' W 079°29'12 2.4
2020-Mar-27 10:01N 26°15' W 079°16'012.6
2020-Mar-27 09:59N 26°15' W 079°17'2311.4
2020-Mar-27 08:00N 26°01' W 079°36'7 3.6
2020-Mar-27 06:00N 25°55' W 079°32'  

Dump ship's entire track history